Weather at Jacmel Airport

Public forecast

Using degrees Celsius for public forecast. Weather courtesy of forecast.io.

Closest aviation weather report (METAR) to Jacmel Airport

Closest report is Toussaint Louverture International Airport, 24.1 nm (44.6 km) NNE. Retrieved 2022/08/10 03:59 UTC (44 minutes ago):

MTPP 100359Z AUTO VRB01KT //// ////// 25/22 Q1015 A2999 NOSIG

Closest aviation forecast (TAF) to Jacmel Airport

Closest forecast is Toussaint Louverture International Airport, 24.1 nm (44.6 km) NNE. Retrieved 2022-08-10 00:16 UTC (4 hours ago):

TAF MTPP 092200Z 1000/1024 27013KT 9999 SCT030CB PROB30 TEMPO 1000/1006 4500 -TSRA SCT020CB BKN030 BECMG 1008/1010 VRB02KT 8000 NSW FEW018 TEMPO 1012/1016 10012KT FM101900 30012KT 9000 SCT030CB SCT070